Time;durP1;ratioP1;P1;durP2;ratioP2;P2;SDS_P1;SDS_P2;PMS_P1;PMS_P2;Temp;Humidity;BMP_temperature;BMP_pressure;BME280_temperature;BME280_humidity;BME280_pressure;Samples;Min_cycle;Max_cycle;Signal;HPM_P1;HPM_P2
2022/02/01 00:02:18;;;;;;;9.27;8.60;;;3.10;99.90;;;;;;5053347;28;20203;-66
2022/02/01 00:07:37;;;;;;;18.83;8.50;;;3.10;99.90;;;;;;5073667;28;20265;-66
2022/02/01 00:34:08;;;;;;;14.77;10.30;;;2.80;99.90;;;;;;5052808;28;20293;-67
2022/02/01 00:36:39;;;;;;;11.37;10.23;;;2.80;99.90;;;;;;5068477;28;20185;-67
2022/02/01 00:39:09;;;;;;;12.13;11.33;;;2.70;99.90;;;;;;5073055;28;20174;-67
2022/02/01 00:41:40;;;;;;;14.90;12.17;;;2.70;99.90;;;;;;5057480;28;20252;-65
2022/02/01 00:44:05;;;;;;;11.27;8.90;;;2.70;99.90;;;;;;5052506;28;20173;-66
2022/02/01 00:46:31;;;;;;;12.17;9.27;;;2.70;99.90;;;;;;5066852;28;20175;-67
2022/02/01 00:48:57;;;;;;;7.47;7.03;;;2.70;99.90;;;;;;5073027;28;20162;-68
2022/02/01 00:51:23;;;;;;;11.03;9.80;;;2.70;99.90;;;;;;5060289;28;20185;-67
2022/02/01 00:53:48;;;;;;;15.07;10.60;;;2.70;99.90;;;;;;5071964;28;20182;-67
2022/02/01 00:56:15;;;;;;;18.57;10.20;;;2.70;99.90;;;;;;5054169;28;20206;-67
2022/02/01 00:58:41;;;;;;;10.70;9.77;;;2.70;99.90;;;;;;5070673;28;20541;-67
2022/02/01 01:01:07;;;;;;;11.50;10.33;;;2.70;99.90;;;;;;5055542;28;20206;-67
2022/02/01 01:03:33;;;;;;;8.80;8.00;;;2.70;99.90;;;;;;5052155;28;20240;-66
2022/02/01 01:05:59;;;;;;;11.13;8.63;;;2.70;99.90;;;;;;5066749;28;20202;-66
2022/02/01 01:08:26;;;;;;;9.37;7.93;;;2.70;99.90;;;;;;5054574;28;20170;-66
2022/02/01 01:10:52;;;;;;;9.53;8.63;;;2.70;99.90;;;;;;5067511;28;20178;-67
2022/02/01 01:16:02;;;;;;;11.43;8.40;;;2.80;99.90;;;;;;5064740;28;20303;-67
2022/02/01 01:18:52;;;;;;;8.97;8.37;;;2.90;99.90;;;;;;5072174;28;20174;-67
2022/02/01 01:53:49;;;;;;;10.63;7.97;;;3.20;99.90;;;;;;5069635;28;20234;-67
2022/02/01 01:56:14;;;;;;;8.90;8.17;;;3.20;99.90;;;;;;5073542;28;20197;-67
2022/02/01 01:58:40;;;;;;;9.40;8.30;;;3.20;99.90;;;;;;5088050;28;20186;-66
2022/02/01 02:01:12;;;;;;;8.43;7.87;;;3.20;99.90;;;;;;5071579;28;20205;-68
2022/02/01 02:03:39;;;;;;;8.43;7.73;;;3.20;99.90;;;;;;5069313;28;20166;-66
2022/02/01 02:06:05;;;;;;;13.33;7.70;;;3.20;99.90;;;;;;5051422;28;20195;-66
2022/02/01 02:08:31;;;;;;;9.10;7.30;;;3.30;99.90;;;;;;5066324;28;20180;-66
2022/02/01 02:11:03;;;;;;;9.30;6.93;;;3.30;99.90;;;;;;5065596;28;20209;-66
2022/02/01 02:15:59;;;;;;;8.37;7.67;;;3.30;99.90;;;;;;5055745;28;20249;-66
2022/02/01 02:18:28;;;;;;;11.63;7.70;;;3.20;99.90;;;;;;5071652;28;20185;-67
2022/02/01 02:20:54;;;;;;;10.40;9.23;;;3.20;99.90;;;;;;5049071;28;20233;-66
2022/02/01 02:23:21;;;;;;;11.63;9.07;;;3.30;99.90;;;;;;5033556;28;20611;-66
2022/02/01 02:25:48;;;;;;;12.90;9.97;;;3.30;99.90;;;;;;5051634;28;20193;-68
2022/02/01 02:28:15;;;;;;;9.43;8.93;;;3.30;99.90;;;;;;5032919;28;20228;-66
2022/02/01 02:30:46;;;;;;;9.60;8.70;;;3.30;99.90;;;;;;5070515;28;20181;-68
2022/02/01 02:33:14;;;;;;;9.67;8.83;;;3.30;99.90;;;;;;5071257;28;20181;-66
2022/02/01 02:35:54;;;;;;;10.67;9.03;;;3.40;99.90;;;;;;5071246;28;20687;-66
2022/02/01 02:38:30;;;;;;;10.13;9.47;;;3.30;99.90;;;;;;5055244;28;20661;-66
2022/02/01 02:41:07;;;;;;;9.50;8.80;;;3.30;99.90;;;;;;5055102;28;20254;-67
2022/02/01 02:46:26;;;;;;;8.40;7.60;;;3.30;99.90;;;;;;5055089;28;20565;-66
2022/02/01 02:48:52;;;;;;;13.73;7.77;;;3.40;99.90;;;;;;5056836;28;20208;-67
2022/02/01 02:51:19;;;;;;;12.80;8.27;;;3.40;99.90;;;;;;5057352;28;20166;-67
2022/02/01 02:53:45;;;;;;;12.10;7.77;;;3.40;99.90;;;;;;5065417;28;20175;-66
2022/02/01 02:56:11;;;;;;;8.63;8.00;;;3.40;99.90;;;;;;5054633;28;20194;-67
2022/02/01 02:58:36;;;;;;;10.63;8.63;;;3.40;99.90;;;;;;5061492;28;20185;-67
2022/02/01 03:01:03;;;;;;;10.10;7.23;;;3.40;99.90;;;;;;5042347;28;20267;-66
2022/02/01 03:03:28;;;;;;;8.67;8.00;;;3.40;99.90;;;;;;5059862;28;20178;-67
2022/02/01 03:05:54;;;;;;;8.87;7.83;;;3.40;99.90;;;;;;5075114;28;20202;-67
2022/02/01 03:08:22;;;;;;;8.07;7.50;;;3.40;99.90;;;;;;5071498;28;20545;-66
2022/02/01 03:10:48;;;;;;;8.67;8.03;;;3.40;99.90;;;;;;5056834;28;20171;-67
2022/02/01 03:13:19;;;;;;;10.13;7.87;;;3.50;99.90;;;;;;5074607;28;20426;-68
2022/02/01 03:15:51;;;;;;;12.13;7.10;;;3.50;99.90;;;;;;5073159;28;20206;-67
2022/02/01 03:21:01;;;;;;;7.80;7.20;;;3.40;99.90;;;;;;5056780;28;20205;-66
2022/02/01 03:23:26;;;;;;;10.70;7.77;;;3.30;99.90;;;;;;5069204;28;20635;-66
2022/02/01 03:25:52;;;;;;;8.53;7.80;;;3.30;99.90;;;;;;5072418;28;20198;-66
2022/02/01 03:28:18;;;;;;;9.67;8.03;;;3.30;99.90;;;;;;5054429;28;20183;-65
2022/02/01 03:30:43;;;;;;;10.20;7.93;;;3.30;99.90;;;;;;5054447;28;20194;-65
2022/02/01 03:33:09;;;;;;;9.70;8.67;;;3.30;99.90;;;;;;5054878;28;20277;-66
2022/02/01 03:35:34;;;;;;;9.43;8.57;;;3.30;99.90;;;;;;5054205;28;20568;-67
2022/02/01 03:38:02;;;;;;;10.80;9.53;;;3.20;99.90;;;;;;5053354;28;20221;-65
2022/02/01 03:40:28;;;;;;;10.00;9.13;;;3.20;99.90;;;;;;5074133;28;20301;-67
2022/02/01 03:42:53;;;;;;;9.70;9.10;;;3.20;99.90;;;;;;5057403;28;20258;-66
2022/02/01 03:45:19;;;;;;;13.93;9.47;;;3.20;99.90;;;;;;5035259;28;20264;-67
2022/02/01 03:47:44;;;;;;;11.23;10.10;;;3.20;99.90;;;;;;5067652;28;20174;-66
2022/02/01 03:50:10;;;;;;;11.17;10.13;;;3.20;99.90;;;;;;5055241;28;20182;-65
2022/02/01 03:52:36;;;;;;;14.10;12.63;;;3.20;99.90;;;;;;5035649;28;20182;-66
2022/02/01 03:55:02;;;;;;;11.90;11.07;;;3.10;99.90;;;;;;5053695;28;20947;-66
2022/02/01 03:57:28;;;;;;;10.57;9.87;;;3.10;99.90;;;;;;5072358;28;20178;-66
2022/02/01 03:59:54;;;;;;;10.93;9.03;;;3.10;99.90;;;;;;5072781;28;20235;-66
2022/02/01 04:02:19;;;;;;;8.20;7.60;;;3.20;99.90;;;;;;5055942;28;20583;-67
2022/02/01 04:04:49;;;;;;;9.63;8.40;;;3.10;99.90;;;;;;5069864;28;20213;-66
2022/02/01 04:07:15;;;;;;;9.37;8.10;;;3.10;99.90;;;;;;5065537;28;20175;-66
2022/02/01 04:09:41;;;;;;;9.27;8.53;;;3.20;99.90;;;;;;5052546;28;20178;-66
2022/02/01 04:12:07;;;;;;;8.07;7.57;;;3.20;99.90;;;;;;5059214;28;20178;-67
2022/02/01 04:14:34;;;;;;;8.80;7.87;;;3.20;99.90;;;;;;5073738;28;20235;-67
2022/02/01 04:17:06;;;;;;;8.97;8.17;;;3.20;99.90;;;;;;5054974;28;20214;-66
2022/02/01 04:19:33;;;;;;;11.03;8.30;;;3.20;99.90;;;;;;5053375;28;20175;-66
2022/02/01 04:22:02;;;;;;;12.80;8.20;;;3.30;99.90;;;;;;5069758;28;20217;-66
2022/02/01 04:24:33;;;;;;;8.70;7.90;;;3.30;99.90;;;;;;5053622;28;20194;-66
2022/02/01 04:26:59;;;;;;;11.97;8.23;;;3.30;99.90;;;;;;5054104;28;20564;-66
2022/02/01 04:29:25;;;;;;;12.53;8.07;;;3.30;99.90;;;;;;5062828;28;20229;-66
2022/02/01 04:31:51;;;;;;;18.30;8.70;;;3.30;99.90;;;;;;5052709;28;20224;-66
2022/02/01 04:34:17;;;;;;;10.07;8.27;;;3.30;99.90;;;;;;5060794;28;20186;-66
2022/02/01 04:36:42;;;;;;;8.40;7.80;;;3.30;99.90;;;;;;5072855;28;20571;-66
2022/02/01 04:39:08;;;;;;;8.73;8.00;;;3.30;99.90;;;;;;5065221;28;20223;-66
2022/02/01 04:41:34;;;;;;;8.70;7.67;;;3.30;99.90;;;;;;5052727;28;20252;-66
2022/02/01 04:44:01;;;;;;;10.70;8.33;;;3.30;99.90;;;;;;5057155;28;20174;-66
2022/02/01 04:46:28;;;;;;;9.00;7.63;;;3.30;99.90;;;;;;5072898;28;20187;-66
2022/02/01 04:48:58;;;;;;;8.90;8.07;;;3.30;99.90;;;;;;5050814;28;20181;-66
2022/02/01 04:51:23;;;;;;;8.90;8.00;;;3.30;99.90;;;;;;5052720;28;20712;-66
2022/02/01 04:53:49;;;;;;;11.50;8.27;;;3.30;99.90;;;;;;5042531;28;20303;-66
2022/02/01 04:56:16;;;;;;;8.63;7.73;;;3.40;99.90;;;;;;5054580;28;20285;-66
2022/02/01 04:58:43;;;;;;;10.43;8.33;;;3.30;99.90;;;;;;5064172;28;20763;-67
2022/02/01 05:01:08;;;;;;;11.43;8.23;;;3.30;99.90;;;;;;5052261;28;20202;-67
2022/02/01 05:03:34;;;;;;;9.13;8.23;;;3.20;99.90;;;;;;5058175;28;20636;-67
2022/02/01 05:06:01;;;;;;;10.20;9.50;;;3.20;99.90;;;;;;5059423;28;20759;-67
2022/02/01 05:08:27;;;;;;;14.53;11.30;;;3.10;99.90;;;;;;5056910;28;20186;-67
2022/02/01 05:10:52;;;;;;;11.67;10.67;;;3.10;99.90;;;;;;5072314;28;20174;-66
2022/02/01 05:15:44;;;;;;;10.43;9.63;;;3.00;99.90;;;;;;5052018;28;20210;-67
2022/02/01 05:18:16;;;;;;;16.13;10.27;;;3.10;99.90;;;;;;5053188;28;20558;-67
2022/02/01 05:23:10;;;;;;;9.57;8.73;;;3.10;99.90;;;;;;5063841;28;20183;-67
2022/02/01 05:25:36;;;;;;;12.47;8.70;;;3.10;99.90;;;;;;5071184;28;20220;-66
2022/02/01 05:28:02;;;;;;;10.20;8.80;;;3.10;99.90;;;;;;5064869;28;20233;-66
2022/02/01 05:30:28;;;;;;;15.10;8.20;;;3.10;99.90;;;;;;5034117;28;20270;-66
2022/02/01 05:32:54;;;;;;;8.77;8.10;;;3.10;99.90;;;;;;5055768;28;20253;-66
2022/02/01 05:35:20;;;;;;;10.10;8.97;;;3.10;99.90;;;;;;5055772;28;20234;-66
2022/02/01 05:37:45;;;;;;;14.30;10.90;;;3.10;99.90;;;;;;5052947;28;20175;-67
2022/02/01 05:40:12;;;;;;;12.43;11.47;;;3.10;99.90;;;;;;5033906;28;20340;-66
2022/02/01 05:42:59;;;;;;;16.33;12.20;;;3.10;99.90;;;;;;5052300;28;20198;-67
2022/02/01 05:45:25;;;;;;;11.17;10.20;;;3.10;99.90;;;;;;5071805;28;20196;-68
2022/02/01 05:47:51;;;;;;;12.67;9.20;;;3.10;99.90;;;;;;5069039;28;20166;-69
2022/02/01 05:50:18;;;;;;;9.50;8.53;;;3.10;99.90;;;;;;5051690;28;20159;-67
2022/02/01 05:52:44;;;;;;;13.77;8.27;;;3.20;99.90;;;;;;5058354;28;20177;-66
2022/02/01 05:55:11;;;;;;;8.90;8.07;;;3.20;99.90;;;;;;5071883;28;20675;-67
2022/02/01 05:57:37;;;;;;;12.63;10.20;;;3.20;99.90;;;;;;5065607;28;20206;-68
2022/02/01 06:00:05;;;;;;;15.47;11.87;;;3.20;99.90;;;;;;5033645;28;20171;-67
2022/02/01 06:02:31;;;;;;;13.13;11.80;;;3.10;99.90;;;;;;5052368;28;20175;-65
2022/02/01 06:04:56;;;;;;;15.07;11.73;;;3.10;99.90;;;;;;5078808;28;20250;-66
2022/02/01 06:07:22;;;;;;;12.60;11.70;;;3.10;99.90;;;;;;5073803;28;20553;-67
2022/02/01 06:09:47;;;;;;;16.47;13.60;;;3.10;99.90;;;;;;5077767;28;20281;-67
2022/02/01 06:12:13;;;;;;;12.90;11.70;;;3.10;99.90;;;;;;5077492;28;20170;-66
2022/02/01 06:14:39;;;;;;;12.10;11.23;;;3.20;99.90;;;;;;5057960;28;20213;-66
2022/02/01 06:17:05;;;;;;;14.30;12.00;;;3.20;99.90;;;;;;5058109;28;20167;-67
2022/02/01 06:19:31;;;;;;;12.47;11.40;;;3.20;99.90;;;;;;5076797;28;20170;-68
2022/02/01 06:21:57;;;;;;;15.13;10.53;;;3.20;99.90;;;;;;5070010;28;20255;-68
2022/02/01 06:24:23;;;;;;;14.90;12.77;;;3.30;99.90;;;;;;5040359;28;20194;-67
2022/02/01 06:26:48;;;;;;;11.90;10.80;;;3.30;99.90;;;;;;5062749;28;20632;-67
2022/02/01 06:29:14;;;;;;;10.97;10.10;;;3.30;99.90;;;;;;5078168;28;20176;-67
2022/02/01 06:31:40;;;;;;;11.77;9.73;;;3.30;99.90;;;;;;5073839;28;20178;-66
2022/02/01 06:34:05;;;;;;;8.83;8.00;;;3.40;99.90;;;;;;5039587;28;20182;-68
2022/02/01 06:36:31;;;;;;;11.50;9.07;;;3.40;99.90;;;;;;5060229;28;20253;-67
2022/02/01 06:38:56;;;;;;;11.90;8.17;;;3.50;99.90;;;;;;5078141;28;20192;-67
2022/02/01 06:41:22;;;;;;;11.47;8.50;;;3.50;99.90;;;;;;5077382;28;20212;-67
2022/02/01 06:43:49;;;;;;;10.80;8.70;;;3.50;99.90;;;;;;5057058;28;20236;-65
2022/02/01 06:46:15;;;;;;;12.93;8.77;;;3.60;99.90;;;;;;5078087;28;20739;-67
2022/02/01 06:48:40;;;;;;;11.57;9.33;;;3.60;99.90;;;;;;5058704;28;20270;-67
2022/02/01 06:51:06;;;;;;;16.97;9.87;;;3.70;99.90;;;;;;5062706;28;20277;-67
2022/02/01 06:53:35;;;;;;;16.03;9.30;;;3.70;99.90;;;;;;5077667;28;20205;-67
2022/02/01 06:56:07;;;;;;;13.70;9.90;;;3.70;99.90;;;;;;5072335;28;20637;-66
2022/02/01 06:58:33;;;;;;;9.60;8.80;;;3.70;99.90;;;;;;5058371;28;20209;-67
2022/02/01 07:00:59;;;;;;;8.70;7.87;;;3.80;99.90;;;;;;5060558;28;20241;-67
2022/02/01 07:03:25;;;;;;;11.63;8.00;;;3.80;99.90;;;;;;5077544;28;20245;-67
2022/02/01 07:05:51;;;;;;;9.10;8.27;;;3.90;99.90;;;;;;5058574;28;20198;-66
2022/02/01 07:08:16;;;;;;;8.70;7.80;;;3.90;99.90;;;;;;5057916;28;20182;-67
2022/02/01 07:10:42;;;;;;;9.53;7.97;;;3.90;99.90;;;;;;5057551;28;20221;-67
2022/02/01 07:13:08;;;;;;;9.50;8.17;;;4.00;99.90;;;;;;5076659;28;20663;-66
2022/02/01 07:15:34;;;;;;;11.60;9.40;;;4.00;99.90;;;;;;5077431;28;20221;-66
2022/02/01 07:18:00;;;;;;;7.77;7.17;;;4.00;99.90;;;;;;5060768;28;20191;-66
2022/02/01 07:20:26;;;;;;;14.13;7.73;;;4.10;99.90;;;;;;5071934;28;20655;-66
2022/02/01 07:22:52;;;;;;;10.37;8.27;;;4.10;99.90;;;;;;5053929;28;20183;-67
2022/02/01 07:27:50;;;;;;;18.57;9.07;;;4.10;99.90;;;;;;5061787;28;20269;-66
2022/02/01 07:30:19;;;;;;;14.00;8.73;;;4.20;99.90;;;;;;5055504;28;20175;-68
2022/02/01 07:32:46;;;;;;;10.80;7.97;;;4.20;99.90;;;;;;5074099;28;20174;-66
2022/02/01 07:35:12;;;;;;;20.63;8.23;;;4.30;99.90;;;;;;5073550;28;20198;-66
2022/02/01 07:37:38;;;;;;;11.87;8.10;;;4.30;99.90;;;;;;5040553;28;20178;-67
2022/02/01 07:40:06;;;;;;;16.67;8.13;;;4.40;99.90;;;;;;5073858;28;20170;-65
2022/02/01 07:42:31;;;;;;;12.93;7.63;;;4.40;99.90;;;;;;5064168;28;20210;-66
2022/02/01 07:44:59;;;;;;;9.53;8.53;;;4.50;99.90;;;;;;5073751;28;20599;-66
2022/02/01 07:47:25;;;;;;;12.53;8.77;;;4.50;99.90;;;;;;5055962;28;20177;-65
2022/02/01 07:49:51;;;;;;;14.00;9.30;;;4.50;99.90;;;;;;5053540;28;20189;-66
2022/02/01 07:52:18;;;;;;;8.87;8.00;;;4.50;99.90;;;;;;5056757;28;20550;-66
2022/02/01 07:54:45;;;;;;;11.97;8.60;;;4.50;99.90;;;;;;5037569;28;20297;-66
2022/02/01 07:57:12;;;;;;;8.97;8.17;;;4.60;99.90;;;;;;5073622;28;20182;-67
2022/02/01 07:59:37;;;;;;;17.00;10.40;;;4.50;99.90;;;;;;5061572;28;20228;-66
2022/02/01 08:02:04;;;;;;;13.73;8.33;;;4.50;99.90;;;;;;5061665;28;20617;-66
2022/02/01 08:04:34;;;;;;;12.33;9.37;;;4.60;99.90;;;;;;5072387;28;20578;-66
2022/02/01 08:07:01;;;;;;;12.93;9.27;;;4.60;99.90;;;;;;5062957;28;20554;-66
2022/02/01 08:09:34;;;;;;;11.07;9.00;;;4.60;99.90;;;;;;5054617;28;20179;-66
2022/02/01 08:12:01;;;;;;;13.90;9.93;;;4.60;99.90;;;;;;5053963;28;20190;-66
2022/02/01 08:17:22;;;;;;;12.13;9.80;;;4.50;99.90;;;;;;5063188;28;20193;-67
2022/02/01 08:25:07;;;;;;;11.60;10.43;;;4.40;99.90;;;;;;5027896;28;20695;-66
2022/02/01 08:27:34;;;;;;;11.87;10.80;;;4.40;99.90;;;;;;5091186;28;20174;-67
2022/02/01 08:30:02;;;;;;;13.00;9.80;;;4.40;99.90;;;;;;5092954;28;20208;-67
2022/02/01 08:32:29;;;;;;;16.57;11.43;;;4.40;99.90;;;;;;5076994;28;20182;-67
2022/02/01 08:34:56;;;;;;;12.83;11.50;;;4.40;99.90;;;;;;5073052;28;20231;-66
2022/02/01 08:37:21;;;;;;;11.20;10.27;;;4.40;99.90;;;;;;5071688;28;20303;-67
2022/02/01 08:39:48;;;;;;;12.30;10.87;;;4.30;99.90;;;;;;5046926;28;20281;-69
2022/02/01 08:42:15;;;;;;;20.90;11.80;;;4.30;99.90;;;;;;5059950;28;20202;-69
2022/02/01 08:44:42;;;;;;;16.83;12.47;;;4.30;99.90;;;;;;5060072;28;20332;-67
2022/02/01 08:47:08;;;;;;;17.50;12.07;;;4.40;99.90;;;;;;5070898;28;20181;-67
2022/02/01 08:49:34;;;;;;;30.00;18.87;;;4.40;99.90;;;;;;5069632;28;20237;-68
2022/02/01 08:52:06;;;;;;;15.70;12.87;;;4.30;99.90;;;;;;5057613;28;20182;-66
2022/02/01 08:54:33;;;;;;;18.67;13.27;;;4.30;99.90;;;;;;5059302;28;20273;-68
2022/02/01 08:59:44;;;;;;;24.87;16.57;;;4.30;99.90;;;;;;5056301;28;20186;-67
2022/02/01 09:02:10;;;;;;;27.97;16.73;;;4.20;99.90;;;;;;5063471;28;20198;-68
2022/02/01 09:04:36;;;;;;;32.00;20.43;;;4.20;99.90;;;;;;5044915;28;20297;-68
2022/02/01 09:07:03;;;;;;;14.60;12.17;;;4.20;99.90;;;;;;5057263;28;20222;-67
2022/02/01 09:09:31;;;;;;;25.63;14.57;;;4.20;99.90;;;;;;5072018;28;20197;-67
2022/02/01 09:11:56;;;;;;;26.70;15.80;;;4.20;99.90;;;;;;5061931;28;20186;-66
2022/02/01 09:14:22;;;;;;;21.27;12.80;;;4.30;99.90;;;;;;5056780;28;20206;-66
2022/02/01 09:16:48;;;;;;;18.10;11.97;;;4.30;99.90;;;;;;5052722;28;20186;-66
2022/02/01 09:19:16;;;;;;;17.10;13.10;;;4.30;99.90;;;;;;5038781;28;20235;-66
2022/02/01 09:21:42;;;;;;;18.97;12.93;;;4.40;99.90;;;;;;5071701;28;20631;-67
2022/02/01 09:24:08;;;;;;;21.83;12.50;;;4.50;99.90;;;;;;5062656;28;20269;-66
2022/02/01 09:26:34;;;;;;;13.63;12.23;;;4.50;99.90;;;;;;5071911;28;20177;-67
2022/02/01 09:28:59;;;;;;;12.87;11.30;;;4.60;99.90;;;;;;5060942;28;20257;-67
2022/02/01 09:31:25;;;;;;;12.33;11.13;;;4.60;99.90;;;;;;5052490;28;20221;-67
2022/02/01 09:33:51;;;;;;;14.87;13.50;;;4.60;99.90;;;;;;5063013;28;20182;-67
2022/02/01 09:36:17;;;;;;;17.17;14.10;;;4.60;99.90;;;;;;5071774;28;20194;-67
2022/02/01 09:38:42;;;;;;;12.90;11.43;;;4.60;99.90;;;;;;5034306;28;20198;-68
2022/02/01 09:41:08;;;;;;;12.80;10.47;;;4.70;99.90;;;;;;5035207;28;20217;-67
2022/02/01 09:43:34;;;;;;;12.17;11.07;;;4.70;99.90;;;;;;5053171;28;20261;-67
2022/02/01 09:46:00;;;;;;;16.10;10.63;;;4.80;99.90;;;;;;5062019;28;20228;-67
2022/02/01 09:48:27;;;;;;;11.67;10.67;;;4.80;99.90;;;;;;5090188;28;20574;-67
2022/02/01 09:50:53;;;;;;;11.57;10.33;;;4.80;99.90;;;;;;5086402;28;20640;-67
2022/02/01 09:53:19;;;;;;;16.20;10.97;;;4.80;99.90;;;;;;5070465;28;20178;-68
2022/02/01 09:55:46;;;;;;;11.20;10.10;;;4.80;99.90;;;;;;5058848;28;20209;-64
2022/02/01 09:58:12;;;;;;;11.50;10.30;;;4.90;99.90;;;;;;5051104;28;20532;-66
2022/02/01 10:00:47;;;;;;;11.97;10.30;;;4.90;99.90;;;;;;5034518;28;20217;-66
2022/02/01 10:03:20;;;;;;;10.33;9.40;;;4.90;99.90;;;;;;5034070;28;20647;-68
2022/02/01 10:06:08;;;;;;;10.43;9.53;;;4.90;99.90;;;;;;5051046;28;20195;-67
2022/02/01 10:08:35;;;;;;;10.73;9.83;;;5.00;99.90;;;;;;5064008;28;20186;-66
2022/02/01 10:11:00;;;;;;;11.30;10.20;;;5.10;99.90;;;;;;5071095;28;20205;-66
2022/02/01 10:13:27;;;;;;;10.73;9.70;;;5.20;99.90;;;;;;5054916;28;20221;-67
2022/02/01 10:16:05;;;;;;;11.03;10.13;;;5.20;99.90;;;;;;5076386;23;20222;-69
2022/02/01 10:18:35;;;;;;;14.47;10.40;;;5.30;99.90;;;;;;5053972;28;20243;-69
2022/02/01 10:21:08;;;;;;;11.87;10.70;;;5.30;99.90;;;;;;5042554;28;20272;-69
2022/02/01 10:23:37;;;;;;;11.47;10.37;;;5.30;99.90;;;;;;5039054;28;20170;-69
2022/02/01 10:26:10;;;;;;;11.07;10.00;;;5.30;99.90;;;;;;5054560;28;20189;-69
2022/02/01 10:29:07;;;;;;;12.03;9.60;;;5.30;99.90;;;;;;5050238;28;20178;-69
2022/02/01 10:37:01;;;;;;;10.60;9.70;;;5.40;99.90;;;;;;5039316;28;20235;-69
2022/02/01 10:39:30;;;;;;;10.13;9.43;;;5.50;99.90;;;;;;5052542;28;20167;-69
2022/02/01 10:42:04;;;;;;;10.17;9.23;;;5.50;99.90;;;;;;5037470;28;20211;-68
2022/02/01 10:44:38;;;;;;;10.07;9.27;;;5.50;99.90;;;;;;5040945;28;20184;-69
2022/02/01 10:47:05;;;;;;;9.53;8.63;;;5.50;99.90;;;;;;5050914;28;20182;-68
2022/02/01 10:49:32;;;;;;;10.27;9.30;;;5.60;99.90;;;;;;5045917;28;20317;-68
2022/02/01 10:52:07;;;;;;;11.23;10.33;;;5.70;99.90;;;;;;5032909;28;20203;-69
2022/02/01 10:54:34;;;;;;;10.73;9.60;;;5.70;99.90;;;;;;5044023;28;20670;-69
2022/02/01 10:57:01;;;;;;;9.90;8.90;;;5.80;99.90;;;;;;5055142;28;20179;-68
2022/02/01 10:59:27;;;;;;;9.63;9.00;;;5.80;99.90;;;;;;5050041;28;20175;-69
2022/02/01 11:01:56;;;;;;;10.23;9.30;;;5.90;99.90;;;;;;5034968;28;20211;-69
2022/02/01 11:04:23;;;;;;;11.07;10.13;;;6.00;99.90;;;;;;5035234;28;20166;-68
2022/02/01 11:06:53;;;;;;;10.00;9.17;;;6.00;99.90;;;;;;5036415;28;20187;-68
2022/02/01 11:09:25;;;;;;;12.63;11.87;;;6.10;99.90;;;;;;5037263;28;20178;-69
2022/02/01 11:11:52;;;;;;;13.00;12.10;;;6.10;99.90;;;;;;5054753;28;20274;-68
2022/02/01 11:14:20;;;;;;;8.50;8.00;;;6.10;99.90;;;;;;5050565;28;20190;-69
2022/02/01 11:16:46;;;;;;;8.30;7.70;;;6.20;99.90;;;;;;5047392;28;20289;-69
2022/02/01 11:19:11;;;;;;;7.73;7.23;;;6.20;99.90;;;;;;5039240;28;20262;-69
2022/02/01 11:21:51;;;;;;;8.67;8.17;;;6.30;99.90;;;;;;5054755;28;20198;-70
2022/02/01 11:24:23;;;;;;;8.47;7.97;;;6.30;99.90;;;;;;5048778;28;20224;-68
2022/02/01 11:27:17;;;;;;;8.10;7.50;;;6.30;99.90;;;;;;5054233;28;20187;-68
2022/02/01 11:32:36;;;;;;;8.00;7.50;;;6.30;99.90;;;;;;5035268;28;20215;-66
2022/02/01 11:35:10;;;;;;;8.73;8.23;;;6.30;99.90;;;;;;5033637;28;20198;-69
2022/02/01 11:37:51;;;;;;;8.27;7.77;;;6.30;99.90;;;;;;5051249;28;20179;-69
2022/02/01 11:40:18;;;;;;;8.90;8.40;;;6.30;99.90;;;;;;5034566;28;20662;-70
2022/02/01 11:43:03;;;;;;;9.70;9.00;;;6.30;99.90;;;;;;5036000;28;20562;-69
2022/02/01 11:45:35;;;;;;;8.30;7.80;;;6.30;99.90;;;;;;5038514;28;20695;-69
2022/02/01 11:48:14;;;;;;;8.30;7.83;;;6.30;99.90;;;;;;5038865;28;20186;-68
2022/02/01 11:51:12;;;;;;;8.43;8.03;;;6.30;99.90;;;;;;5037073;28;20229;-68
2022/02/01 11:53:40;;;;;;;8.23;7.77;;;6.40;99.90;;;;;;5029018;28;20195;-68
2022/02/01 11:56:08;;;;;;;8.87;8.27;;;6.30;99.90;;;;;;5033920;28;20188;-69
2022/02/01 11:58:38;;;;;;;7.67;7.27;;;6.30;99.90;;;;;;5040878;28;20175;-67
2022/02/01 12:01:28;;;;;;;8.70;8.10;;;6.30;99.90;;;;;;5051122;28;20190;-69
2022/02/01 12:04:09;;;;;;;8.23;7.73;;;6.20;99.90;;;;;;5025305;28;20184;-68
2022/02/01 12:07:05;;;;;;;8.20;7.70;;;6.30;99.90;;;;;;5032652;28;20207;-69
2022/02/01 12:09:31;;;;;;;9.63;8.93;;;6.30;99.90;;;;;;5041659;28;20175;-69
2022/02/01 12:12:01;;;;;;;9.37;8.77;;;6.40;99.90;;;;;;5053564;28;20175;-69
2022/02/01 12:14:28;;;;;;;10.30;9.37;;;6.40;99.90;;;;;;5047223;28;20229;-69
2022/02/01 12:16:55;;;;;;;10.73;9.87;;;6.40;99.90;;;;;;5034015;28;20191;-69
2022/02/01 12:19:39;;;;;;;8.80;8.20;;;6.50;99.90;;;;;;5040276;28;20295;-69
2022/02/01 12:22:25;;;;;;;8.87;8.17;;;6.50;99.90;;;;;;5053749;28;20198;-68
2022/02/01 12:24:52;;;;;;;8.70;7.90;;;6.50;99.90;;;;;;5046564;28;20276;-66
2022/02/01 12:27:18;;;;;;;8.33;7.83;;;6.50;99.90;;;;;;5054563;28;20632;-67
2022/02/01 12:29:43;;;;;;;7.87;7.47;;;6.60;99.90;;;;;;5035628;28;20190;-69
2022/02/01 12:32:10;;;;;;;8.57;8.07;;;6.60;99.90;;;;;;5038325;28;20182;-69
2022/02/01 12:34:37;;;;;;;8.47;7.97;;;6.60;99.90;;;;;;5042728;28;20640;-67
2022/02/01 12:37:02;;;;;;;8.30;7.70;;;6.60;99.90;;;;;;5055591;28;20685;-68
2022/02/01 12:39:32;;;;;;;8.40;8.00;;;6.70;99.90;;;;;;5054034;28;20179;-69
2022/02/01 12:42:07;;;;;;;8.00;7.50;;;6.70;99.90;;;;;;5051031;28;20627;-68
2022/02/01 12:47:06;;;;;;;8.07;7.67;;;6.80;99.90;;;;;;5049652;28;20596;-67
2022/02/01 12:49:44;;;;;;;7.43;7.13;;;6.80;99.90;;;;;;5041622;28;20167;-69
2022/02/01 12:52:22;;;;;;;8.53;7.93;;;6.90;99.90;;;;;;5049546;28;20182;-68
2022/02/01 12:54:56;;;;;;;9.00;8.40;;;6.80;99.90;;;;;;5044190;28;20218;-68
2022/02/01 12:57:22;;;;;;;7.97;7.47;;;6.80;99.90;;;;;;5048546;28;20174;-69
2022/02/01 12:59:52;;;;;;;8.30;7.70;;;6.80;99.90;;;;;;5044650;28;20175;-68
2022/02/01 13:02:22;;;;;;;8.60;8.10;;;6.80;99.90;;;;;;5036713;28;20238;-68
2022/02/01 13:04:57;;;;;;;7.50;7.10;;;6.80;99.90;;;;;;5052817;28;20199;-68
2022/02/01 13:07:51;;;;;;;7.90;7.40;;;6.90;99.90;;;;;;5051224;28;20548;-69
2022/02/01 13:16:36;;;;;;;9.23;8.63;;;6.90;99.90;;;;;;5050194;28;20242;-69
2022/02/01 13:21:30;;;;;;;7.53;7.10;;;6.90;99.90;;;;;;5037101;28;20217;-68
2022/02/01 13:23:58;;;;;;;9.37;8.90;;;6.90;99.90;;;;;;5049467;28;20180;-68
2022/02/01 13:26:27;;;;;;;8.00;7.60;;;6.90;99.90;;;;;;5044958;28;20211;-68
2022/02/01 13:29:12;;;;;;;8.13;7.53;;;6.90;99.90;;;;;;5034892;28;20168;-68
2022/02/01 13:31:38;;;;;;;7.40;7.00;;;7.00;99.90;;;;;;5045881;28;20534;-69
2022/02/01 13:34:09;;;;;;;6.97;6.47;;;7.00;99.90;;;;;;5053155;28;20221;-69
2022/02/01 13:36:58;;;;;;;7.63;7.23;;;7.00;99.90;;;;;;5045945;28;20258;-65
2022/02/01 13:39:29;;;;;;;8.73;8.30;;;7.00;99.90;;;;;;5036781;28;20232;-68
2022/02/01 13:42:03;;;;;;;7.17;6.87;;;7.00;99.90;;;;;;5029601;28;20642;-66
2022/02/01 13:44:31;;;;;;;7.60;7.30;;;7.00;99.90;;;;;;5030468;28;20180;-69
2022/02/01 13:47:10;;;;;;;6.63;6.30;;;7.10;99.90;;;;;;5034609;28;20175;-68
2022/02/01 13:49:37;;;;;;;6.73;6.43;;;7.10;99.90;;;;;;5044841;28;20299;-69
2022/02/01 13:52:06;;;;;;;8.00;7.60;;;7.10;99.90;;;;;;5035505;28;20181;-65
2022/02/01 13:54:43;;;;;;;7.40;6.93;;;7.10;99.90;;;;;;5048108;28;20190;-69
2022/02/01 13:57:20;;;;;;;8.70;8.30;;;7.10;99.90;;;;;;5051343;28;20175;-68
2022/02/01 13:59:48;;;;;;;7.03;6.63;;;7.10;99.90;;;;;;5050792;28;20189;-68
2022/02/01 14:02:26;;;;;;;32.43;30.73;;;7.10;99.90;;;;;;5034908;28;20203;-69
2022/02/01 14:05:02;;;;;;;6.77;6.30;;;7.10;99.90;;;;;;5042254;28;20216;-68
2022/02/01 14:07:39;;;;;;;7.23;6.83;;;7.10;99.90;;;;;;5048651;28;20182;-69
2022/02/01 14:27:08;;;;;;;7.73;7.10;;;7.20;99.90;;;;;;5027907;28;20252;-68
2022/02/01 14:32:15;;;;;;;7.93;7.47;;;7.20;99.90;;;;;;5026741;28;20182;-69
2022/02/01 14:34:43;;;;;;;9.03;8.43;;;7.20;99.90;;;;;;5044522;28;20191;-69
2022/02/01 14:37:17;;;;;;;8.63;8.03;;;7.20;99.90;;;;;;5040984;28;20194;-69
2022/02/01 14:45:08;;;;;;;9.07;8.37;;;7.20;99.90;;;;;;5050198;28;20306;-69
2022/02/01 14:47:34;;;;;;;8.83;8.00;;;7.20;99.90;;;;;;5055163;28;20202;-68
2022/02/01 14:50:00;;;;;;;10.47;9.67;;;7.30;99.90;;;;;;5047954;28;20175;-67
2022/02/01 14:52:26;;;;;;;9.80;9.10;;;7.30;99.90;;;;;;5035945;28;20191;-69
2022/02/01 14:54:56;;;;;;;9.63;8.93;;;7.30;99.90;;;;;;5040991;28;20203;-69
2022/02/01 15:13:31;;;;;;;16.63;14.80;;;7.40;99.90;;;;;;5053065;28;20185;-67
2022/02/01 15:15:58;;;;;;;18.47;14.33;;;7.40;99.90;;;;;;5035917;28;20583;-68
2022/02/01 15:18:23;;;;;;;16.20;14.63;;;7.50;99.90;;;;;;5055461;28;20179;-68
2022/02/01 15:20:51;;;;;;;18.07;14.03;;;7.50;99.90;;;;;;5053343;28;20760;-67
2022/02/01 15:23:17;;;;;;;17.37;14.83;;;7.50;99.90;;;;;;5035781;28;20183;-69
2022/02/01 15:25:42;;;;;;;21.43;18.40;;;7.60;99.90;;;;;;5047401;28;20199;-68